EDW028 LSZH-ZPPP
Flight info
| Callsign | EDW028 |
|---|---|
| Flight time | N/A |
| Altitude | 37000 |
| Route | DEGES Z2 TUNUM DCT UMVEG DCT DIMLO DCT INVED DCT SOKRU DCT DINRO DCT UDROS UM859 KARDE UN644 ROLIN N644 TETRO DCT BARAD M747 SUBUT T923 ERLEV M11 AMOKU/N0485F390 M11 RODAR A909 LEMOD N644 DI A466 SULOM M890 LKN A201 PPT/N0489F410 A201 LSO A599 LINSO/K0906S1250 A599 GULOT GULOT1A |
| Aircraft | A359/H-SDE2E3GHIJ3J4J5LM1ORWXY/LB1D1 |
Departure
| Time | 2026-05-03 23:34 |
|---|---|
| Airport | Zürich Airport (LSZH) |
Arrival
| Time | N/A |
|---|---|
| Airport | Kunming Changshui International Airport (ZPPP) |
| Time | Latitude | Longitude | Altitude | Speed | Heading |
|---|---|---|---|---|---|
| 2026-05-03 23:20 | 47.46187 | 8.55107 | 1403 ft | 0 kts | 155° |
| 2026-05-03 23:22 | 47.46189 | 8.55105 | 1413 ft | 4 kts | 155° |
| 2026-05-03 23:22 | 47.46214 | 8.55089 | 1413 ft | 4 kts | 155° |
| 2026-05-03 23:22 | 47.46233 | 8.55075 | 1410 ft | 4 kts | 162° |
| 2026-05-03 23:23 | 47.46257 | 8.55068 | 1409 ft | 4 kts | 185° |
| 2026-05-03 23:23 | 47.46276 | 8.55074 | 1411 ft | 4 kts | 224° |
| 2026-05-03 23:23 | 47.46285 | 8.55092 | 1413 ft | 4 kts | 273° |
| 2026-05-03 23:23 | 47.46282 | 8.55131 | 1413 ft | 4 kts | 276° |
| 2026-05-03 23:24 | 47.46281 | 8.55152 | 1411 ft | 4 kts | 276° |
| 2026-05-03 23:24 | 47.46284 | 8.55112 | 1410 ft | 1 kts | 276° |
| 2026-05-03 23:24 | 47.46284 | 8.55111 | 1410 ft | 0 kts | 276° |
| 2026-05-03 23:30 | 47.46285 | 8.55098 | 1413 ft | 4 kts | 276° |
| 2026-05-03 23:30 | 47.46289 | 8.55029 | 1408 ft | 10 kts | 276° |
| 2026-05-03 23:30 | 47.46299 | 8.54902 | 1409 ft | 15 kts | 276° |
| 2026-05-03 23:30 | 47.46330 | 8.54736 | 1410 ft | 19 kts | 314° |
| 2026-05-03 23:31 | 47.46456 | 8.54638 | 1412 ft | 23 kts | 335° |
| 2026-05-03 23:31 | 47.46610 | 8.54531 | 1410 ft | 26 kts | 335° |
| 2026-05-03 23:31 | 47.46774 | 8.54425 | 1409 ft | 26 kts | 343° |
| 2026-05-03 23:31 | 47.46940 | 8.54324 | 1406 ft | 26 kts | 336° |
| 2026-05-03 23:32 | 47.47105 | 8.54216 | 1408 ft | 26 kts | 333° |
| 2026-05-03 23:32 | 47.47269 | 8.54099 | 1410 ft | 26 kts | 335° |
| 2026-05-03 23:32 | 47.47435 | 8.53985 | 1409 ft | 27 kts | 334° |
| 2026-05-03 23:32 | 47.47587 | 8.53860 | 1409 ft | 21 kts | 310° |
| 2026-05-03 23:33 | 47.47589 | 8.53665 | 1412 ft | 20 kts | 244° |
| 2026-05-03 23:33 | 47.47510 | 8.53628 | 1413 ft | 0 kts | 151° |
| 2026-05-03 23:34 | 47.47285 | 8.53788 | 1410 ft | 73 kts | 154° |
| 2026-05-03 23:34 | 47.46603 | 8.54260 | 1405 ft | 142 kts | 155° |
| 2026-05-03 23:34 | 47.45528 | 8.54977 | 1539 ft | 187 kts | 156° |
| 2026-05-03 23:34 | 47.44322 | 8.55737 | 2401 ft | 186 kts | 155° |
| 2026-05-03 23:35 | 47.43276 | 8.56774 | 3392 ft | 184 kts | 131° |
| 2026-05-03 23:35 | 47.42665 | 8.58492 | 3748 ft | 202 kts | 98° |
| 2026-05-03 23:35 | 47.43007 | 8.60552 | 4004 ft | 219 kts | 54° |
| 2026-05-03 23:35 | 47.44048 | 8.62207 | 4448 ft | 228 kts | 47° |
| 2026-05-03 23:36 | 47.45000 | 8.64225 | 4677 ft | 252 kts | 64° |
| 2026-05-03 23:36 | 47.45622 | 8.66743 | 5117 ft | 267 kts | 76° |
| 2026-05-03 23:36 | 47.45989 | 8.69472 | 5793 ft | 273 kts | 82° |
| 2026-05-03 23:36 | 47.46225 | 8.72284 | 6508 ft | 279 kts | 84° |
| 2026-05-03 23:37 | 47.46390 | 8.75159 | 7260 ft | 283 kts | 86° |
| 2026-05-03 23:37 | 47.46524 | 8.78079 | 8057 ft | 286 kts | 87° |
| 2026-05-03 23:37 | 47.46645 | 8.80984 | 8883 ft | 288 kts | 89° |
| 2026-05-03 23:37 | 47.46487 | 8.83980 | 9725 ft | 289 kts | 102° |
| 2026-05-03 23:38 | 47.46080 | 8.86912 | 10437 ft | 296 kts | 104° |
| 2026-05-03 23:38 | 47.45617 | 8.89982 | 10767 ft | 317 kts | 104° |
| 2026-05-03 23:38 | 47.45133 | 8.93269 | 11087 ft | 337 kts | 104° |
| 2026-05-03 23:38 | 47.44631 | 8.96744 | 11391 ft | 356 kts | 104° |
| 2026-05-03 23:39 | 47.44110 | 9.00373 | 11752 ft | 371 kts | 104° |
| 2026-05-03 23:39 | 47.43574 | 9.04145 | 12326 ft | 379 kts | 103° |
| 2026-05-03 23:39 | 47.43023 | 9.07981 | 12985 ft | 385 kts | 104° |
| 2026-05-03 23:39 | 47.42458 | 9.11883 | 13617 ft | 391 kts | 104° |
| 2026-05-03 23:40 | 47.41885 | 9.15829 | 14231 ft | 395 kts | 104° |
| 2026-05-03 23:40 | 47.41472 | 9.19865 | 14871 ft | 401 kts | 93° |
| 2026-05-03 23:40 | 47.41673 | 9.23979 | 15563 ft | 404 kts | 83° |
| 2026-05-03 23:40 | 47.42180 | 9.28080 | 16237 ft | 408 kts | 79° |
| 2026-05-03 23:41 | 47.42832 | 9.32179 | 16882 ft | 411 kts | 77° |
| 2026-05-03 23:41 | 47.43535 | 9.36289 | 17543 ft | 414 kts | 77° |
| 2026-05-03 23:41 | 47.44241 | 9.40439 | 18191 ft | 417 kts | 77° |
| 2026-05-03 23:41 | 47.44929 | 9.44628 | 18761 ft | 421 kts | 77° |
| 2026-05-03 23:42 | 47.45598 | 9.48865 | 19278 ft | 426 kts | 78° |
| 2026-05-03 23:42 | 47.46253 | 9.53152 | 19814 ft | 430 kts | 78° |
| 2026-05-03 23:42 | 47.46856 | 9.57437 | 20353 ft | 434 kts | 82° |
| 2026-05-03 23:42 | 47.47065 | 9.61899 | 20926 ft | 436 kts | 91° |
| 2026-05-03 23:43 | 47.46989 | 9.66405 | 21494 ft | 440 kts | 94° |
| 2026-05-03 23:43 | 47.46794 | 9.70937 | 22057 ft | 443 kts | 96° |
| 2026-05-03 23:43 | 47.46535 | 9.75505 | 22623 ft | 447 kts | 96° |
| 2026-05-03 23:43 | 47.46251 | 9.80104 | 23197 ft | 451 kts | 96° |
| 2026-05-03 23:44 | 47.45963 | 9.84741 | 23738 ft | 455 kts | 96° |
| 2026-05-03 23:44 | 47.45679 | 9.89415 | 24200 ft | 459 kts | 96° |
| 2026-05-03 23:44 | 47.45401 | 9.94120 | 24679 ft | 462 kts | 96° |
| 2026-05-03 23:44 | 47.45126 | 9.98873 | 25162 ft | 465 kts | 96° |
| 2026-05-03 23:45 | 47.44850 | 10.03666 | 25617 ft | 469 kts | 96° |
| 2026-05-03 23:45 | 47.44577 | 10.08419 | 26091 ft | 472 kts | 96° |
| 2026-05-03 23:45 | 47.44297 | 10.13267 | 26551 ft | 476 kts | 96° |
| 2026-05-03 23:45 | 47.43945 | 10.18113 | 27007 ft | 478 kts | 101° |
| 2026-05-03 23:46 | 47.43386 | 10.22970 | 27466 ft | 481 kts | 102° |
| 2026-05-03 23:46 | 47.42767 | 10.27839 | 27926 ft | 483 kts | 103° |
| 2026-05-03 23:46 | 47.42112 | 10.32724 | 28385 ft | 486 kts | 103° |
| 2026-05-03 23:46 | 47.41439 | 10.37632 | 28818 ft | 490 kts | 103° |
| 2026-05-03 23:47 | 47.40756 | 10.42581 | 29247 ft | 493 kts | 103° |
| 2026-05-03 23:47 | 47.40071 | 10.47551 | 29650 ft | 496 kts | 103° |
| 2026-05-03 23:47 | 47.39382 | 10.52564 | 30024 ft | 499 kts | 103° |
| 2026-05-03 23:47 | 47.38688 | 10.57596 | 30376 ft | 502 kts | 103° |
| 2026-05-03 23:48 | 47.37987 | 10.62650 | 30689 ft | 505 kts | 103° |
| 2026-05-03 23:48 | 47.37278 | 10.67751 | 30997 ft | 508 kts | 103° |
| 2026-05-03 23:48 | 47.36566 | 10.72857 | 31331 ft | 509 kts | 103° |
| 2026-05-03 23:48 | 47.35851 | 10.77973 | 31707 ft | 510 kts | 103° |
| 2026-05-03 23:49 | 47.35135 | 10.83090 | 32125 ft | 509 kts | 103° |
| 2026-05-03 23:49 | 47.34416 | 10.88207 | 32523 ft | 508 kts | 103° |
| 2026-05-03 23:49 | 47.33698 | 10.93304 | 32943 ft | 507 kts | 103° |
| 2026-05-03 23:49 | 47.32988 | 10.98317 | 33331 ft | 506 kts | 103° |
| 2026-05-03 23:50 | 47.32267 | 11.03393 | 33718 ft | 506 kts | 103° |
| 2026-05-03 23:50 | 47.31778 | 11.06819 | 33988 ft | 505 kts | 103° |
| 2026-05-03 23:50 | 47.30820 | 11.13515 | 34440 ft | 504 kts | 103° |
| 2026-05-03 23:50 | 47.30095 | 11.18562 | 34767 ft | 503 kts | 103° |
| 2026-05-03 23:51 | 47.29370 | 11.23594 | 35089 ft | 502 kts | 103° |
| 2026-05-03 23:51 | 47.28644 | 11.28622 | 35419 ft | 501 kts | 103° |
| 2026-05-03 23:51 | 47.27916 | 11.33637 | 35722 ft | 500 kts | 103° |
| 2026-05-03 23:51 | 47.27190 | 11.38630 | 36015 ft | 499 kts | 103° |
| 2026-05-03 23:52 | 47.26462 | 11.43622 | 36312 ft | 499 kts | 103° |
| 2026-05-03 23:52 | 47.25730 | 11.48623 | 36587 ft | 498 kts | 103° |
| 2026-05-03 23:52 | 47.25011 | 11.53607 | 36878 ft | 497 kts | 102° |
| 2026-05-03 23:52 | 47.24401 | 11.58634 | 37051 ft | 499 kts | 100° |
| 2026-05-03 23:53 | 47.23367 | 11.68760 | 37070 ft | 499 kts | 99° |
| 2026-05-03 23:53 | 47.22345 | 11.78800 | 37082 ft | 499 kts | 99° |
| 2026-05-03 23:54 | 47.21260 | 11.88867 | 37086 ft | 498 kts | 100° |
| 2026-05-03 23:54 | 47.20218 | 11.98936 | 37078 ft | 497 kts | 99° |
| 2026-05-03 23:55 | 47.19265 | 12.09002 | 37083 ft | 497 kts | 98° |
| 2026-05-03 23:55 | 47.18300 | 12.19072 | 37084 ft | 497 kts | 99° |
| 2026-05-03 23:56 | 47.17311 | 12.29129 | 37085 ft | 497 kts | 99° |
| 2026-05-03 23:56 | 47.16307 | 12.39165 | 37080 ft | 496 kts | 99° |
| 2026-05-03 23:57 | 47.15293 | 12.49208 | 37077 ft | 496 kts | 99° |
| 2026-05-03 23:57 | 47.14272 | 12.59226 | 37086 ft | 495 kts | 99° |
| 2026-05-03 23:58 | 47.13251 | 12.69165 | 37082 ft | 495 kts | 99° |
| 2026-05-03 23:58 | 47.12212 | 12.79186 | 37081 ft | 495 kts | 99° |
| 2026-05-03 23:59 | 47.11166 | 12.89190 | 37082 ft | 496 kts | 99° |
| 2026-05-03 23:59 | 47.10111 | 12.99199 | 37091 ft | 496 kts | 99° |
| 2026-05-04 00:00 | 47.09047 | 13.09192 | 37091 ft | 495 kts | 99° |
| 2026-05-04 00:00 | 47.07978 | 13.19169 | 37086 ft | 495 kts | 99° |
| 2026-05-04 00:01 | 47.06899 | 13.29137 | 37089 ft | 495 kts | 99° |
| 2026-05-04 00:01 | 47.05810 | 13.39110 | 37093 ft | 495 kts | 99° |
| 2026-05-04 00:02 | 47.04712 | 13.49086 | 37097 ft | 495 kts | 99° |
| 2026-05-04 00:02 | 47.03616 | 13.58974 | 37098 ft | 494 kts | 99° |
| 2026-05-04 00:03 | 47.02503 | 13.68927 | 37102 ft | 494 kts | 99° |
| 2026-05-04 00:03 | 47.01383 | 13.78858 | 37101 ft | 494 kts | 99° |
| 2026-05-04 00:04 | 47.00256 | 13.88779 | 37101 ft | 494 kts | 99° |
| 2026-05-04 00:04 | 46.99118 | 13.98708 | 37108 ft | 493 kts | 99° |
| 2026-05-04 00:05 | 46.97975 | 14.08608 | 37104 ft | 493 kts | 99° |
| 2026-05-04 00:05 | 46.96822 | 14.18515 | 37102 ft | 493 kts | 99° |
| 2026-05-04 00:06 | 46.95660 | 14.28413 | 37100 ft | 493 kts | 99° |
| 2026-05-04 00:06 | 46.94491 | 14.38304 | 37101 ft | 492 kts | 99° |
| 2026-05-04 00:07 | 46.93323 | 14.48108 | 37098 ft | 492 kts | 99° |
| 2026-05-04 00:07 | 46.92138 | 14.57982 | 37094 ft | 491 kts | 99° |
| 2026-05-04 00:08 | 46.90949 | 14.67813 | 37092 ft | 491 kts | 99° |
| 2026-05-04 00:08 | 46.89749 | 14.77656 | 37092 ft | 491 kts | 99° |
| 2026-05-04 00:09 | 46.88551 | 14.87412 | 37092 ft | 491 kts | 99° |
| 2026-05-04 00:09 | 46.87335 | 14.97247 | 37089 ft | 491 kts | 99° |
| 2026-05-04 00:10 | 46.86111 | 15.07067 | 37086 ft | 492 kts | 99° |
| 2026-05-04 00:10 | 46.84876 | 15.16906 | 37081 ft | 492 kts | 99° |
| 2026-05-04 00:11 | 46.83635 | 15.26731 | 37081 ft | 492 kts | 99° |
| 2026-05-04 00:11 | 46.82382 | 15.36569 | 37083 ft | 492 kts | 99° |
| 2026-05-04 00:12 | 46.81127 | 15.46348 | 37075 ft | 493 kts | 99° |
| 2026-05-04 00:12 | 46.80070 | 15.54536 | 37079 ft | 493 kts | 99° |
| 2026-05-04 00:13 | 46.78792 | 15.64376 | 37076 ft | 493 kts | 99° |
| 2026-05-04 00:13 | 46.77506 | 15.74203 | 37077 ft | 493 kts | 99° |
| 2026-05-04 00:14 | 46.76211 | 15.84038 | 37086 ft | 493 kts | 99° |
| 2026-05-04 00:14 | 46.74906 | 15.93871 | 37082 ft | 493 kts | 99° |
| 2026-05-04 00:15 | 46.73593 | 16.03697 | 37082 ft | 494 kts | 99° |
| 2026-05-04 00:15 | 46.72271 | 16.13530 | 37076 ft | 494 kts | 99° |
| 2026-05-04 00:16 | 46.70941 | 16.23347 | 37075 ft | 493 kts | 99° |
| 2026-05-04 00:16 | 46.69612 | 16.33091 | 37085 ft | 493 kts | 99° |
| 2026-05-04 00:17 | 46.68266 | 16.42902 | 37085 ft | 493 kts | 99° |
| 2026-05-04 00:17 | 46.67059 | 16.52750 | 37090 ft | 493 kts | 97° |
| 2026-05-04 00:18 | 46.65980 | 16.62607 | 37089 ft | 492 kts | 97° |
| 2026-05-04 00:18 | 46.64876 | 16.72451 | 37108 ft | 492 kts | 97° |
| 2026-05-04 00:19 | 46.63743 | 16.82221 | 37111 ft | 492 kts | 97° |
| 2026-05-04 00:19 | 46.62585 | 16.92040 | 37126 ft | 492 kts | 97° |
| 2026-05-04 00:20 | 46.61420 | 17.01847 | 37134 ft | 492 kts | 98° |
| 2026-05-04 00:20 | 46.60244 | 17.11676 | 37123 ft | 492 kts | 98° |
| 2026-05-04 00:21 | 46.59069 | 17.21427 | 37129 ft | 492 kts | 98° |
| 2026-05-04 00:21 | 46.57880 | 17.31222 | 37136 ft | 492 kts | 98° |
| 2026-05-04 00:22 | 46.56682 | 17.41019 | 37119 ft | 492 kts | 98° |
| 2026-05-04 00:22 | 46.55477 | 17.50798 | 37116 ft | 492 kts | 98° |
| 2026-05-04 00:23 | 46.54262 | 17.60588 | 37115 ft | 492 kts | 98° |
| 2026-05-04 00:23 | 46.53040 | 17.70367 | 37117 ft | 492 kts | 98° |
| 2026-05-04 00:24 | 46.51816 | 17.80086 | 37118 ft | 492 kts | 98° |
| 2026-05-04 00:24 | 46.50575 | 17.89871 | 37122 ft | 492 kts | 98° |
| 2026-05-04 00:25 | 46.49328 | 17.99630 | 37123 ft | 492 kts | 98° |
| 2026-05-04 00:25 | 46.48072 | 18.09392 | 37124 ft | 492 kts | 98° |
| 2026-05-04 00:26 | 46.46808 | 18.19153 | 37130 ft | 492 kts | 98° |
| 2026-05-04 00:26 | 46.45544 | 18.28836 | 37136 ft | 492 kts | 98° |
| 2026-05-04 00:27 | 46.44265 | 18.38576 | 37135 ft | 491 kts | 98° |
| 2026-05-04 00:27 | 46.42977 | 18.48308 | 37136 ft | 490 kts | 98° |
| 2026-05-04 00:28 | 46.41684 | 18.58015 | 37139 ft | 490 kts | 98° |
| 2026-05-04 00:28 | 46.40384 | 18.67713 | 37139 ft | 490 kts | 98° |
| 2026-05-04 00:29 | 46.39076 | 18.77403 | 37144 ft | 490 kts | 98° |
| 2026-05-04 00:29 | 46.37769 | 18.87017 | 37144 ft | 489 kts | 98° |
| 2026-05-04 00:30 | 46.36444 | 18.96702 | 37149 ft | 489 kts | 98° |
| 2026-05-04 00:30 | 46.35114 | 19.06358 | 37149 ft | 489 kts | 98° |
| 2026-05-04 00:31 | 46.33777 | 19.16001 | 37153 ft | 489 kts | 98° |
| 2026-05-04 00:31 | 46.32430 | 19.25657 | 37149 ft | 489 kts | 98° |
| 2026-05-04 00:32 | 46.31077 | 19.35287 | 37156 ft | 488 kts | 98° |
| 2026-05-04 00:32 | 46.29726 | 19.44845 | 37156 ft | 488 kts | 98° |
| 2026-05-04 00:33 | 46.27671 | 19.59266 | 37160 ft | 488 kts | 98° |
| 2026-05-04 00:34 | 46.26290 | 19.68876 | 37160 ft | 488 kts | 98° |
| 2026-05-04 00:34 | 46.24903 | 19.78476 | 37157 ft | 487 kts | 98° |
| 2026-05-04 00:35 | 46.23509 | 19.88055 | 37158 ft | 487 kts | 98° |
| 2026-05-04 00:35 | 46.22109 | 19.97621 | 37157 ft | 486 kts | 98° |
| 2026-05-04 00:36 | 46.20710 | 20.07122 | 37163 ft | 486 kts | 98° |
| 2026-05-04 00:36 | 46.19296 | 20.16661 | 37160 ft | 486 kts | 98° |
| 2026-05-04 00:37 | 46.17874 | 20.26203 | 37163 ft | 485 kts | 98° |
| 2026-05-04 00:37 | 46.16443 | 20.35741 | 37153 ft | 485 kts | 98° |
| 2026-05-04 00:38 | 46.14927 | 20.45241 | 37159 ft | 487 kts | 102° |
| 2026-05-04 00:38 | 46.12931 | 20.54516 | 37158 ft | 488 kts | 104° |
| 2026-05-04 00:39 | 46.10825 | 20.63814 | 37158 ft | 487 kts | 104° |
| 2026-05-04 00:39 | 46.08783 | 20.73124 | 37152 ft | 487 kts | 103° |
| 2026-05-04 00:40 | 46.06782 | 20.82443 | 37154 ft | 486 kts | 103° |
| 2026-05-04 00:40 | 46.04786 | 20.91749 | 37157 ft | 486 kts | 103° |
| 2026-05-04 00:41 | 46.02782 | 21.01040 | 37153 ft | 486 kts | 103° |
| 2026-05-04 00:41 | 46.00764 | 21.10338 | 37156 ft | 486 kts | 103° |
| 2026-05-04 00:42 | 45.98743 | 21.19608 | 37152 ft | 486 kts | 103° |
| 2026-05-04 00:42 | 45.96711 | 21.28881 | 37158 ft | 485 kts | 104° |
| 2026-05-04 00:43 | 45.94689 | 21.38072 | 37157 ft | 485 kts | 104° |
| 2026-05-04 00:43 | 45.92635 | 21.47369 | 37158 ft | 485 kts | 104° |
| 2026-05-04 00:44 | 45.90599 | 21.56542 | 37160 ft | 485 kts | 104° |
| 2026-05-04 00:44 | 45.88547 | 21.65752 | 37162 ft | 484 kts | 104° |
| 2026-05-04 00:45 | 45.86488 | 21.74949 | 37163 ft | 484 kts | 104° |
| 2026-05-04 00:45 | 45.84421 | 21.84139 | 37165 ft | 483 kts | 104° |
| 2026-05-04 00:46 | 45.82353 | 21.93302 | 37171 ft | 483 kts | 104° |
| 2026-05-04 00:46 | 45.80281 | 22.02440 | 37177 ft | 482 kts | 104° |
| 2026-05-04 00:47 | 45.78201 | 22.11575 | 37178 ft | 481 kts | 104° |
| 2026-05-04 00:47 | 45.76132 | 22.20621 | 37178 ft | 481 kts | 104° |
| 2026-05-04 00:48 | 45.74044 | 22.29711 | 37180 ft | 480 kts | 104° |
| 2026-05-04 00:48 | 45.71953 | 22.38778 | 37190 ft | 479 kts | 104° |
| 2026-05-04 00:49 | 45.69856 | 22.47827 | 37187 ft | 479 kts | 104° |
| 2026-05-04 00:49 | 45.67753 | 22.56876 | 37185 ft | 478 kts | 104° |
| 2026-05-04 00:50 | 45.65645 | 22.65899 | 37179 ft | 478 kts | 104° |
| 2026-05-04 00:50 | 45.63544 | 22.74865 | 37187 ft | 478 kts | 104° |
| 2026-05-04 00:51 | 45.61427 | 22.83864 | 37192 ft | 477 kts | 104° |
| 2026-05-04 00:51 | 45.59302 | 22.92853 | 37194 ft | 478 kts | 104° |
| 2026-05-04 00:52 | 45.57167 | 23.01846 | 37196 ft | 478 kts | 104° |
| 2026-05-04 00:52 | 45.55026 | 23.10832 | 37196 ft | 478 kts | 104° |
| 2026-05-04 00:53 | 45.52874 | 23.19823 | 37198 ft | 478 kts | 104° |
| 2026-05-04 00:53 | 45.50730 | 23.28748 | 37194 ft | 479 kts | 104° |
| 2026-05-04 00:54 | 45.48564 | 23.37730 | 37196 ft | 479 kts | 104° |
| 2026-05-04 00:54 | 45.46388 | 23.46714 | 37194 ft | 479 kts | 104° |
| 2026-05-04 00:55 | 45.44204 | 23.55688 | 37183 ft | 479 kts | 104° |
| 2026-05-04 00:55 | 45.42013 | 23.64654 | 37184 ft | 479 kts | 105° |
| 2026-05-04 00:56 | 45.39833 | 23.73557 | 37185 ft | 479 kts | 105° |
| 2026-05-04 00:56 | 45.37633 | 23.82509 | 37168 ft | 480 kts | 105° |
| 2026-05-04 00:57 | 45.35410 | 23.91502 | 37174 ft | 480 kts | 105° |
| 2026-05-04 00:57 | 45.33564 | 23.98941 | 37170 ft | 480 kts | 105° |
| 2026-05-04 00:58 | 45.30977 | 24.09336 | 37180 ft | 479 kts | 105° |
| 2026-05-04 00:58 | 45.28749 | 24.18255 | 37171 ft | 479 kts | 105° |
| 2026-05-04 00:59 | 45.26888 | 24.25668 | 37172 ft | 479 kts | 105° |
| 2026-05-04 00:59 | 45.24644 | 24.34576 | 37171 ft | 478 kts | 105° |
| 2026-05-04 01:00 | 45.22398 | 24.43467 | 37171 ft | 478 kts | 105° |
| 2026-05-04 01:00 | 45.20150 | 24.52329 | 37173 ft | 477 kts | 106° |
| 2026-05-04 01:01 | 45.17898 | 24.61176 | 37173 ft | 476 kts | 106° |
| 2026-05-04 01:01 | 45.15640 | 24.70013 | 37169 ft | 476 kts | 106° |
| 2026-05-04 01:02 | 45.13381 | 24.78823 | 37165 ft | 476 kts | 106° |
| 2026-05-04 01:02 | 45.11113 | 24.87629 | 37169 ft | 476 kts | 106° |
| 2026-05-04 01:03 | 45.08850 | 24.96384 | 37169 ft | 477 kts | 107° |
| 2026-05-04 01:03 | 45.06563 | 25.05197 | 37167 ft | 477 kts | 107° |
| 2026-05-04 01:04 | 45.04270 | 25.14000 | 37161 ft | 477 kts | 107° |
| 2026-05-04 01:04 | 45.01963 | 25.22820 | 37158 ft | 477 kts | 107° |
| 2026-05-04 01:05 | 44.99649 | 25.31569 | 37143 ft | 478 kts | 109° |
| 2026-05-04 01:05 | 44.96827 | 25.40119 | 37147 ft | 480 kts | 113° |
| 2026-05-04 01:06 | 44.93873 | 25.48574 | 37146 ft | 480 kts | 114° |
| 2026-05-04 01:06 | 44.90898 | 25.56997 | 37141 ft | 480 kts | 114° |
| 2026-05-04 01:07 | 44.87917 | 25.65433 | 37142 ft | 480 kts | 114° |
| 2026-05-04 01:07 | 44.84934 | 25.73870 | 37135 ft | 480 kts | 114° |
| 2026-05-04 01:08 | 44.81966 | 25.82245 | 37130 ft | 480 kts | 114° |
| 2026-05-04 01:08 | 44.78970 | 25.90673 | 37126 ft | 481 kts | 114° |
| 2026-05-04 01:09 | 44.75968 | 25.99089 | 37126 ft | 481 kts | 114° |
| 2026-05-04 01:09 | 44.72961 | 26.07494 | 37130 ft | 481 kts | 114° |
| 2026-05-04 01:10 | 44.69947 | 26.15892 | 37127 ft | 481 kts | 115° |
| 2026-05-04 01:10 | 44.66926 | 26.24284 | 37129 ft | 481 kts | 115° |
| 2026-05-04 01:11 | 44.63919 | 26.32611 | 37124 ft | 481 kts | 115° |
| 2026-05-04 01:11 | 44.60888 | 26.40978 | 37119 ft | 481 kts | 115° |
| 2026-05-04 01:12 | 44.57850 | 26.49340 | 37115 ft | 480 kts | 115° |
| 2026-05-04 01:12 | 44.54807 | 26.57690 | 37107 ft | 480 kts | 115° |
| 2026-05-04 01:13 | 44.51758 | 26.66031 | 37104 ft | 480 kts | 115° |
| 2026-05-04 01:13 | 44.48713 | 26.74336 | 37101 ft | 479 kts | 115° |
| 2026-05-04 01:14 | 44.45682 | 26.82578 | 37099 ft | 479 kts | 116° |
| 2026-05-04 01:14 | 44.42627 | 26.90860 | 37097 ft | 479 kts | 116° |
| 2026-05-04 01:15 | 44.39565 | 26.99137 | 37096 ft | 480 kts | 116° |
| 2026-05-04 01:15 | 44.36488 | 27.07429 | 37089 ft | 480 kts | 116° |
| 2026-05-04 01:16 | 44.33404 | 27.15717 | 37086 ft | 481 kts | 116° |
| 2026-05-04 01:16 | 44.30303 | 27.24023 | 37086 ft | 482 kts | 116° |
| 2026-05-04 01:17 | 44.27196 | 27.32322 | 37088 ft | 482 kts | 116° |
| 2026-05-04 01:17 | 44.24101 | 27.40564 | 37083 ft | 483 kts | 117° |
| 2026-05-04 01:18 | 44.20969 | 27.48879 | 37081 ft | 484 kts | 117° |
| 2026-05-04 01:18 | 44.17832 | 27.57182 | 37083 ft | 483 kts | 117° |
| 2026-05-04 01:19 | 44.14700 | 27.65448 | 37085 ft | 482 kts | 117° |
| 2026-05-04 01:19 | 44.11569 | 27.73686 | 37081 ft | 480 kts | 117° |
| 2026-05-04 01:20 | 44.08442 | 27.81892 | 37074 ft | 479 kts | 117° |
| 2026-05-04 01:20 | 44.05319 | 27.90061 | 37076 ft | 478 kts | 117° |
| 2026-05-04 01:21 | 44.02214 | 27.98159 | 37074 ft | 477 kts | 118° |
| 2026-05-04 01:21 | 43.99086 | 28.06295 | 37070 ft | 477 kts | 118° |
| 2026-05-04 01:22 | 43.95954 | 28.14416 | 37062 ft | 476 kts | 118° |
| 2026-05-04 01:22 | 43.92824 | 28.22513 | 37062 ft | 476 kts | 118° |
| 2026-05-04 01:23 | 43.89683 | 28.30611 | 37060 ft | 477 kts | 118° |
| 2026-05-04 01:23 | 43.86535 | 28.38705 | 37056 ft | 477 kts | 118° |
| 2026-05-04 01:24 | 43.83378 | 28.46798 | 37056 ft | 477 kts | 118° |
| 2026-05-04 01:24 | 43.80214 | 28.54887 | 37057 ft | 478 kts | 118° |
| 2026-05-04 01:25 | 43.77061 | 28.62925 | 37055 ft | 478 kts | 118° |
| 2026-05-04 01:25 | 43.73884 | 28.71000 | 37060 ft | 477 kts | 118° |
| 2026-05-04 01:26 | 43.70699 | 28.79033 | 37055 ft | 476 kts | 120° |
| 2026-05-04 01:26 | 43.67006 | 28.86613 | 37053 ft | 475 kts | 125° |
| 2026-05-04 01:27 | 43.63175 | 28.93966 | 37050 ft | 474 kts | 126° |
| 2026-05-04 01:27 | 43.59298 | 29.01315 | 37047 ft | 473 kts | 126° |
| 2026-05-04 01:28 | 43.55427 | 29.08654 | 37042 ft | 472 kts | 126° |
| 2026-05-04 01:28 | 43.51560 | 29.15986 | 37038 ft | 471 kts | 126° |
| 2026-05-04 01:29 | 43.47700 | 29.23290 | 37033 ft | 471 kts | 126° |
| 2026-05-04 01:29 | 43.43842 | 29.30574 | 37032 ft | 470 kts | 126° |
| 2026-05-04 01:30 | 43.40002 | 29.37804 | 37025 ft | 470 kts | 126° |
| 2026-05-04 01:30 | 43.36141 | 29.45057 | 37020 ft | 470 kts | 126° |
| 2026-05-04 01:31 | 43.32276 | 29.52301 | 37018 ft | 469 kts | 127° |
| 2026-05-04 01:31 | 43.28405 | 29.59536 | 37010 ft | 469 kts | 127° |
| 2026-05-04 01:32 | 43.24567 | 29.66693 | 37011 ft | 468 kts | 127° |
| 2026-05-04 01:32 | 43.20675 | 29.73933 | 37008 ft | 468 kts | 127° |
| 2026-05-04 01:33 | 43.16805 | 29.81113 | 37002 ft | 468 kts | 127° |
| 2026-05-04 01:33 | 43.12959 | 29.88233 | 37000 ft | 468 kts | 127° |
| 2026-05-04 01:34 | 43.09083 | 29.95390 | 36994 ft | 468 kts | 127° |
| 2026-05-04 01:34 | 43.05203 | 30.02537 | 36986 ft | 467 kts | 127° |
| 2026-05-04 01:35 | 43.01316 | 30.09681 | 36984 ft | 467 kts | 127° |
| 2026-05-04 01:35 | 42.97435 | 30.16798 | 36980 ft | 467 kts | 127° |
| 2026-05-04 01:36 | 42.93546 | 30.23911 | 36974 ft | 467 kts | 127° |
| 2026-05-04 01:36 | 42.89654 | 30.31012 | 36970 ft | 467 kts | 127° |
| 2026-05-04 01:37 | 42.85791 | 30.38046 | 36966 ft | 466 kts | 127° |
| 2026-05-04 01:37 | 42.81898 | 30.45115 | 36960 ft | 466 kts | 127° |
| 2026-05-04 01:38 | 42.78000 | 30.52178 | 36957 ft | 466 kts | 127° |
| 2026-05-04 01:38 | 42.74668 | 30.59717 | 36956 ft | 466 kts | 114° |
| 2026-05-04 01:39 | 42.72978 | 30.68215 | 36949 ft | 467 kts | 101° |
| 2026-05-04 01:39 | 42.72044 | 30.76969 | 36947 ft | 468 kts | 99° |
| 2026-05-04 01:40 | 42.71209 | 30.85746 | 36943 ft | 467 kts | 99° |
| 2026-05-04 01:40 | 42.70344 | 30.94496 | 36940 ft | 467 kts | 99° |
| 2026-05-04 01:41 | 42.69444 | 31.03254 | 36936 ft | 467 kts | 99° |
| 2026-05-04 01:41 | 42.68534 | 31.11944 | 36930 ft | 467 kts | 99° |
| 2026-05-04 01:42 | 42.67615 | 31.20668 | 36924 ft | 466 kts | 99° |
| 2026-05-04 01:42 | 42.66690 | 31.29393 | 36924 ft | 466 kts | 99° |
| 2026-05-04 01:43 | 42.65759 | 31.38109 | 36917 ft | 466 kts | 99° |
| 2026-05-04 01:43 | 42.64822 | 31.46820 | 36914 ft | 466 kts | 99° |
| 2026-05-04 01:44 | 42.63885 | 31.55472 | 36909 ft | 465 kts | 99° |
| 2026-05-04 01:44 | 42.62934 | 31.64178 | 36911 ft | 465 kts | 99° |
| 2026-05-04 01:45 | 42.61979 | 31.72868 | 36908 ft | 465 kts | 100° |
| 2026-05-04 01:45 | 42.60696 | 31.84441 | 36900 ft | 465 kts | 100° |
| 2026-05-04 01:46 | 42.59724 | 31.93136 | 36895 ft | 465 kts | 100° |
| 2026-05-04 01:46 | 42.58747 | 32.01815 | 36891 ft | 465 kts | 100° |
| 2026-05-04 01:47 | 42.57784 | 32.10510 | 36888 ft | 465 kts | 100° |
| 2026-05-04 01:47 | 42.56796 | 32.19184 | 36883 ft | 465 kts | 100° |
| 2026-05-04 01:48 | 42.55792 | 32.27862 | 36878 ft | 465 kts | 100° |
| 2026-05-04 01:48 | 42.54786 | 32.36530 | 36874 ft | 465 kts | 100° |
| 2026-05-04 01:49 | 42.53774 | 32.45211 | 36868 ft | 465 kts | 101° |
| 2026-05-04 01:49 | 42.52757 | 32.53877 | 36863 ft | 465 kts | 101° |
| 2026-05-04 01:50 | 42.51741 | 32.62483 | 36853 ft | 465 kts | 101° |
| 2026-05-04 01:50 | 42.50713 | 32.71133 | 36853 ft | 465 kts | 101° |
| 2026-05-04 01:51 | 42.49678 | 32.79775 | 36849 ft | 465 kts | 101° |
| 2026-05-04 01:51 | 42.48637 | 32.88417 | 36840 ft | 464 kts | 101° |
| 2026-05-04 01:52 | 42.47589 | 32.97056 | 36839 ft | 464 kts | 101° |
| 2026-05-04 01:52 | 42.46536 | 33.05682 | 36836 ft | 464 kts | 101° |
| 2026-05-04 01:53 | 42.45475 | 33.14327 | 36829 ft | 464 kts | 101° |
| 2026-05-04 01:53 | 42.44410 | 33.22959 | 36818 ft | 464 kts | 101° |
| 2026-05-04 01:54 | 42.43340 | 33.31526 | 36820 ft | 464 kts | 101° |
| 2026-05-04 01:54 | 42.42256 | 33.40153 | 36818 ft | 465 kts | 101° |
| 2026-05-04 01:55 | 42.41171 | 33.48776 | 36812 ft | 465 kts | 102° |
| 2026-05-04 01:55 | 42.40075 | 33.57406 | 36808 ft | 465 kts | 102° |
| 2026-05-04 01:56 | 42.38973 | 33.66032 | 36802 ft | 465 kts | 102° |
| 2026-05-04 01:56 | 42.37864 | 33.74663 | 36801 ft | 465 kts | 102° |
| 2026-05-04 01:57 | 42.36757 | 33.83229 | 36800 ft | 465 kts | 102° |
| 2026-05-04 01:57 | 42.35635 | 33.91861 | 36798 ft | 466 kts | 102° |
| 2026-05-04 01:58 | 42.34509 | 34.00495 | 36795 ft | 466 kts | 102° |
| 2026-05-04 01:58 | 42.33378 | 34.09132 | 36792 ft | 466 kts | 102° |
| 2026-05-04 01:59 | 42.32238 | 34.17770 | 36788 ft | 467 kts | 102° |
| 2026-05-04 01:59 | 42.31101 | 34.26339 | 36789 ft | 467 kts | 102° |
| 2026-05-04 02:00 | 42.29948 | 34.34970 | 36790 ft | 467 kts | 102° |
| 2026-05-04 02:00 | 42.28792 | 34.43609 | 36788 ft | 467 kts | 102° |
| 2026-05-04 02:01 | 42.27622 | 34.52252 | 36787 ft | 467 kts | 103° |
| 2026-05-04 02:01 | 42.26443 | 34.60888 | 36783 ft | 468 kts | 103° |
| 2026-05-04 02:02 | 42.25259 | 34.69526 | 36783 ft | 468 kts | 103° |
| 2026-05-04 02:02 | 42.24076 | 34.78114 | 36784 ft | 468 kts | 103° |
| 2026-05-04 02:03 | 42.22883 | 34.86751 | 36784 ft | 468 kts | 103° |
| 2026-05-04 02:03 | 42.21675 | 34.95387 | 36782 ft | 469 kts | 103° |
| 2026-05-04 02:04 | 42.20458 | 35.04030 | 36781 ft | 469 kts | 103° |
| 2026-05-04 02:04 | 42.19234 | 35.12680 | 36781 ft | 470 kts | 103° |
| 2026-05-04 02:05 | 42.18003 | 35.21343 | 36781 ft | 470 kts | 103° |
| 2026-05-04 02:05 | 42.16765 | 35.30014 | 36781 ft | 471 kts | 103° |
| 2026-05-04 02:06 | 42.15527 | 35.38624 | 36777 ft | 471 kts | 103° |
| 2026-05-04 02:06 | 42.14272 | 35.47300 | 36780 ft | 472 kts | 103° |
| 2026-05-04 02:07 | 42.13016 | 35.55972 | 36781 ft | 472 kts | 104° |
| 2026-05-04 02:07 | 42.11750 | 35.64671 | 36776 ft | 472 kts | 104° |
| 2026-05-04 02:08 | 42.10478 | 35.73354 | 36774 ft | 473 kts | 104° |
| 2026-05-04 02:08 | 42.09197 | 35.82052 | 36774 ft | 473 kts | 104° |
| 2026-05-04 02:09 | 42.07917 | 35.90691 | 36773 ft | 473 kts | 104° |
| 2026-05-04 02:09 | 42.06622 | 35.99378 | 36772 ft | 473 kts | 104° |
| 2026-05-04 02:10 | 42.05321 | 36.08065 | 36774 ft | 473 kts | 104° |
| 2026-05-04 02:10 | 42.04012 | 36.16753 | 36775 ft | 474 kts | 104° |
| 2026-05-04 02:11 | 42.02696 | 36.25441 | 36774 ft | 474 kts | 104° |
| 2026-05-04 02:11 | 42.01372 | 36.34138 | 36770 ft | 474 kts | 105° |
| 2026-05-04 02:12 | 42.00049 | 36.42776 | 36770 ft | 474 kts | 105° |
| 2026-05-04 02:12 | 41.98712 | 36.51461 | 36774 ft | 474 kts | 105° |
| 2026-05-04 02:13 | 41.97367 | 36.60153 | 36772 ft | 475 kts | 105° |
| 2026-05-04 02:13 | 41.96016 | 36.68836 | 36774 ft | 475 kts | 105° |
| 2026-05-04 02:14 | 41.94659 | 36.77517 | 36769 ft | 475 kts | 105° |
| 2026-05-04 02:14 | 41.93293 | 36.86207 | 36768 ft | 475 kts | 105° |
| 2026-05-04 02:15 | 41.91928 | 36.94845 | 36765 ft | 475 kts | 105° |
| 2026-05-04 02:15 | 41.90637 | 37.03550 | 36775 ft | 478 kts | 101° |
| 2026-05-04 02:16 | 41.90248 | 37.12492 | 36774 ft | 481 kts | 95° |
| 2026-05-04 02:16 | 41.90109 | 37.21479 | 36781 ft | 482 kts | 95° |
| 2026-05-04 02:17 | 41.90003 | 37.30481 | 36782 ft | 482 kts | 95° |
| 2026-05-04 02:17 | 41.89874 | 37.39480 | 36768 ft | 482 kts | 95° |
| 2026-05-04 02:18 | 41.89726 | 37.48491 | 36771 ft | 482 kts | 95° |
| 2026-05-04 02:18 | 41.89568 | 37.57444 | 36779 ft | 483 kts | 95° |
| 2026-05-04 02:19 | 41.89402 | 37.66462 | 36772 ft | 483 kts | 95° |
| 2026-05-04 02:19 | 41.89230 | 37.75470 | 36780 ft | 483 kts | 95° |
| 2026-05-04 02:20 | 41.89051 | 37.84497 | 36774 ft | 483 kts | 95° |
| 2026-05-04 02:20 | 41.88865 | 37.93510 | 36777 ft | 483 kts | 96° |
| 2026-05-04 02:21 | 41.88671 | 38.02534 | 36772 ft | 484 kts | 96° |
| 2026-05-04 02:21 | 41.88471 | 38.11555 | 36777 ft | 484 kts | 96° |
| 2026-05-04 02:22 | 41.88263 | 38.20581 | 36775 ft | 484 kts | 96° |
| 2026-05-04 02:22 | 41.88050 | 38.29551 | 36774 ft | 484 kts | 96° |
| 2026-05-04 02:23 | 41.87828 | 38.38580 | 36773 ft | 484 kts | 96° |
| 2026-05-04 02:23 | 41.87599 | 38.47615 | 36770 ft | 485 kts | 96° |
| 2026-05-04 02:24 | 41.87363 | 38.56654 | 36773 ft | 485 kts | 96° |
| 2026-05-04 02:24 | 41.87119 | 38.65692 | 36772 ft | 485 kts | 96° |
| 2026-05-04 02:25 | 41.86869 | 38.74742 | 36779 ft | 485 kts | 96° |
| 2026-05-04 02:25 | 41.86611 | 38.83791 | 36768 ft | 485 kts | 96° |
| 2026-05-04 02:26 | 41.86347 | 38.92790 | 36774 ft | 485 kts | 96° |
| 2026-05-04 02:26 | 41.86075 | 39.01838 | 36779 ft | 486 kts | 97° |
| 2026-05-04 02:27 | 41.85795 | 39.10912 | 36773 ft | 486 kts | 97° |
| 2026-05-04 02:27 | 41.85508 | 39.19974 | 36778 ft | 486 kts | 97° |
| 2026-05-04 02:28 | 41.85214 | 39.29048 | 36777 ft | 486 kts | 97° |
| 2026-05-04 02:28 | 41.84915 | 39.38042 | 36776 ft | 486 kts | 97° |
| 2026-05-04 02:29 | 41.84606 | 39.47115 | 36770 ft | 486 kts | 97° |
| 2026-05-04 02:29 | 41.84292 | 39.56177 | 36779 ft | 486 kts | 97° |
| 2026-05-04 02:30 | 41.83970 | 39.65234 | 36772 ft | 486 kts | 97° |
| 2026-05-04 02:30 | 41.83640 | 39.74309 | 36775 ft | 487 kts | 97° |
| 2026-05-04 02:31 | 41.83304 | 39.83381 | 36776 ft | 487 kts | 97° |
| 2026-05-04 02:31 | 41.82963 | 39.92393 | 36777 ft | 487 kts | 97° |
| 2026-05-04 02:32 | 41.82612 | 40.01480 | 36775 ft | 488 kts | 97° |
| 2026-05-04 02:32 | 41.82253 | 40.10578 | 36778 ft | 488 kts | 97° |
| 2026-05-04 02:33 | 41.81954 | 40.18129 | 36774 ft | 488 kts | 97° |
| 2026-05-04 02:33 | 41.81579 | 40.27239 | 36778 ft | 489 kts | 98° |
| 2026-05-04 02:34 | 41.81196 | 40.36330 | 36772 ft | 489 kts | 98° |
| 2026-05-04 02:34 | 41.80806 | 40.45450 | 36774 ft | 490 kts | 98° |
| 2026-05-04 02:35 | 41.80412 | 40.54511 | 36771 ft | 490 kts | 98° |
| 2026-05-04 02:35 | 41.80009 | 40.63628 | 36773 ft | 490 kts | 98° |
| 2026-05-04 02:36 | 41.79594 | 40.72755 | 36770 ft | 490 kts | 98° |
| 2026-05-04 02:36 | 41.79142 | 40.81884 | 36775 ft | 491 kts | 98° |
| 2026-05-04 02:37 | 41.78681 | 40.91014 | 36772 ft | 491 kts | 98° |
| 2026-05-04 02:37 | 41.78216 | 41.00177 | 36778 ft | 492 kts | 98° |
| 2026-05-04 02:38 | 41.77748 | 41.09320 | 36775 ft | 492 kts | 98° |
| 2026-05-04 02:38 | 41.77276 | 41.18409 | 36782 ft | 492 kts | 98° |
| 2026-05-04 02:39 | 41.76792 | 41.27571 | 36767 ft | 493 kts | 98° |
| 2026-05-04 02:39 | 41.76301 | 41.36725 | 36761 ft | 493 kts | 98° |
| 2026-05-04 02:40 | 41.75803 | 41.45883 | 36754 ft | 493 kts | 98° |
| 2026-05-04 02:40 | 41.75297 | 41.55048 | 36749 ft | 493 kts | 98° |
| 2026-05-04 02:41 | 41.74788 | 41.64143 | 36747 ft | 493 kts | 98° |
| 2026-05-04 02:41 | 41.74268 | 41.73307 | 36749 ft | 493 kts | 98° |
| 2026-05-04 02:42 | 41.73740 | 41.82476 | 36747 ft | 494 kts | 99° |
| 2026-05-04 02:42 | 41.73202 | 41.91650 | 36738 ft | 494 kts | 99° |
| 2026-05-04 02:43 | 41.72659 | 42.00829 | 36732 ft | 494 kts | 99° |
| 2026-05-04 02:43 | 41.72107 | 42.10012 | 36721 ft | 495 kts | 99° |
| 2026-05-04 02:44 | 41.71545 | 42.19201 | 36717 ft | 495 kts | 99° |
| 2026-05-04 02:44 | 41.70978 | 42.28402 | 36718 ft | 496 kts | 99° |
| 2026-05-04 02:45 | 41.70404 | 42.37594 | 36717 ft | 495 kts | 99° |
| 2026-05-04 02:45 | 41.69825 | 42.46717 | 36725 ft | 495 kts | 99° |
| 2026-05-04 02:46 | 41.69236 | 42.55885 | 36727 ft | 495 kts | 99° |
| 2026-05-04 02:46 | 41.68640 | 42.65056 | 36737 ft | 495 kts | 99° |
| 2026-05-04 02:47 | 41.68037 | 42.74225 | 36742 ft | 494 kts | 99° |
| 2026-05-04 02:47 | 41.67427 | 42.83383 | 36750 ft | 494 kts | 99° |
| 2026-05-04 02:48 | 41.66646 | 42.92499 | 36759 ft | 492 kts | 104° |
| 2026-05-04 02:48 | 41.65375 | 43.01473 | 36767 ft | 491 kts | 106° |
| 2026-05-04 02:49 | 41.64056 | 43.10455 | 36774 ft | 492 kts | 105° |
| 2026-05-04 02:49 | 41.62808 | 43.19464 | 36792 ft | 493 kts | 105° |
| 2026-05-04 02:50 | 41.61593 | 43.28494 | 36784 ft | 494 kts | 104° |
| 2026-05-04 02:50 | 41.60379 | 43.37527 | 36806 ft | 494 kts | 104° |
| 2026-05-04 02:51 | 41.59162 | 43.46512 | 36819 ft | 494 kts | 104° |
| 2026-05-04 02:51 | 41.57924 | 43.55545 | 36836 ft | 495 kts | 105° |
| 2026-05-04 02:52 | 41.56677 | 43.64594 | 36857 ft | 495 kts | 105° |
| 2026-05-04 02:52 | 41.55424 | 43.73632 | 36874 ft | 495 kts | 105° |
| 2026-05-04 02:53 | 41.54162 | 43.82686 | 36892 ft | 496 kts | 105° |
| 2026-05-04 02:53 | 41.52892 | 43.91747 | 36912 ft | 497 kts | 105° |
| 2026-05-04 02:54 | 41.51613 | 44.00817 | 36930 ft | 498 kts | 105° |
| 2026-05-04 02:54 | 41.50323 | 44.09905 | 36940 ft | 499 kts | 105° |
| 2026-05-04 02:55 | 41.48379 | 44.23497 | 36962 ft | 500 kts | 105° |
| 2026-05-04 02:56 | 41.47067 | 44.32617 | 36970 ft | 500 kts | 105° |
| 2026-05-04 02:56 | 41.45744 | 44.41745 | 36979 ft | 501 kts | 105° |
| 2026-05-04 02:57 | 41.44414 | 44.50872 | 36984 ft | 502 kts | 105° |
| 2026-05-04 02:57 | 41.43075 | 44.60010 | 36989 ft | 502 kts | 105° |
| 2026-05-04 02:58 | 41.41734 | 44.69101 | 36991 ft | 503 kts | 105° |
| 2026-05-04 02:58 | 41.40374 | 44.78272 | 36984 ft | 504 kts | 105° |
| 2026-05-04 02:59 | 41.39006 | 44.87453 | 36980 ft | 505 kts | 106° |
| 2026-05-04 02:59 | 41.37629 | 44.96635 | 36978 ft | 506 kts | 106° |
| 2026-05-04 03:00 | 41.36235 | 45.05829 | 36972 ft | 506 kts | 107° |
| 2026-05-04 03:00 | 41.34240 | 45.14746 | 36973 ft | 502 kts | 113° |
| 2026-05-04 03:01 | 41.32018 | 45.23491 | 36970 ft | 502 kts | 114° |
| 2026-05-04 03:01 | 41.29731 | 45.32291 | 36973 ft | 503 kts | 114° |